sensor_id;sensor_type;location;lat;lon;timestamp;P1;durP1;ratioP1;P2;durP2;ratioP2
25948;SDS011;13961;51.178;4.448;2023-08-06T00:00:51;4.88;;;2.50;;
25948;SDS011;13961;51.178;4.448;2023-08-06T00:03:17;4.53;;;2.72;;
25948;SDS011;13961;51.178;4.448;2023-08-06T00:05:44;6.68;;;3.08;;
25948;SDS011;13961;51.178;4.448;2023-08-06T00:08:12;4.47;;;2.42;;
25948;SDS011;13961;51.178;4.448;2023-08-06T00:10:39;6.63;;;3.65;;
25948;SDS011;13961;51.178;4.448;2023-08-06T00:13:07;3.85;;;2.90;;
25948;SDS011;13961;51.178;4.448;2023-08-06T00:15:32;5.30;;;2.45;;
25948;SDS011;13961;51.178;4.448;2023-08-06T00:17:59;5.80;;;2.60;;
25948;SDS011;13961;51.178;4.448;2023-08-06T00:20:26;3.92;;;2.97;;
25948;SDS011;13961;51.178;4.448;2023-08-06T00:22:52;4.80;;;2.90;;
25948;SDS011;13961;51.178;4.448;2023-08-06T00:25:19;5.28;;;2.90;;
25948;SDS011;13961;51.178;4.448;2023-08-06T00:27:45;5.57;;;3.00;;
25948;SDS011;13961;51.178;4.448;2023-08-06T00:30:10;5.60;;;2.92;;
25948;SDS011;13961;51.178;4.448;2023-08-06T00:32:36;6.40;;;3.67;;
25948;SDS011;13961;51.178;4.448;2023-08-06T00:35:03;4.20;;;3.42;;
25948;SDS011;13961;51.178;4.448;2023-08-06T00:37:30;5.57;;;3.67;;
25948;SDS011;13961;51.178;4.448;2023-08-06T00:39:57;6.93;;;3.45;;
25948;SDS011;13961;51.178;4.448;2023-08-06T00:42:24;5.38;;;3.45;;
25948;SDS011;13961;51.178;4.448;2023-08-06T00:44:51;5.38;;;3.05;;
25948;SDS011;13961;51.178;4.448;2023-08-06T00:47:20;5.22;;;3.35;;
25948;SDS011;13961;51.178;4.448;2023-08-06T00:49:46;4.15;;;3.20;;
25948;SDS011;13961;51.178;4.448;2023-08-06T00:54:43;4.90;;;3.30;;
25948;SDS011;13961;51.178;4.448;2023-08-06T00:57:09;6.90;;;3.45;;
25948;SDS011;13961;51.178;4.448;2023-08-06T00:59:37;7.32;;;3.53;;
25948;SDS011;13961;51.178;4.448;2023-08-06T01:02:03;5.35;;;3.35;;
25948;SDS011;13961;51.178;4.448;2023-08-06T01:04:30;4.88;;;3.40;;
25948;SDS011;13961;51.178;4.448;2023-08-06T01:17:40;4.35;;;3.72;;
25948;SDS011;13961;51.178;4.448;2023-08-06T01:20:06;5.55;;;3.55;;
25948;SDS011;13961;51.178;4.448;2023-08-06T01:22:32;4.70;;;3.47;;
25948;SDS011;13961;51.178;4.448;2023-08-06T01:24:58;6.45;;;3.55;;
25948;SDS011;13961;51.178;4.448;2023-08-06T01:27:37;5.65;;;3.38;;
25948;SDS011;13961;51.178;4.448;2023-08-06T01:30:23;6.38;;;3.60;;
25948;SDS011;13961;51.178;4.448;2023-08-06T01:32:54;4.95;;;3.20;;
25948;SDS011;13961;51.178;4.448;2023-08-06T01:35:23;6.18;;;3.50;;
25948;SDS011;13961;51.178;4.448;2023-08-06T01:37:51;7.10;;;3.63;;
25948;SDS011;13961;51.178;4.448;2023-08-06T01:40:17;7.00;;;3.63;;
25948;SDS011;13961;51.178;4.448;2023-08-06T01:42:43;8.48;;;3.38;;
25948;SDS011;13961;51.178;4.448;2023-08-06T01:45:09;4.75;;;3.47;;
25948;SDS011;13961;51.178;4.448;2023-08-06T01:47:36;5.25;;;3.70;;
25948;SDS011;13961;51.178;4.448;2023-08-06T01:50:03;6.40;;;3.80;;
25948;SDS011;13961;51.178;4.448;2023-08-06T01:52:29;7.28;;;4.03;;
25948;SDS011;13961;51.178;4.448;2023-08-06T01:54:57;5.80;;;3.97;;
25948;SDS011;13961;51.178;4.448;2023-08-06T01:57:22;9.25;;;4.05;;
25948;SDS011;13961;51.178;4.448;2023-08-06T01:59:48;9.27;;;3.80;;
25948;SDS011;13961;51.178;4.448;2023-08-06T02:02:16;7.85;;;3.70;;
25948;SDS011;13961;51.178;4.448;2023-08-06T02:04:41;7.72;;;3.88;;
25948;SDS011;13961;51.178;4.448;2023-08-06T02:07:08;5.80;;;3.63;;
25948;SDS011;13961;51.178;4.448;2023-08-06T02:09:34;10.80;;;3.58;;
25948;SDS011;13961;51.178;4.448;2023-08-06T02:12:03;9.13;;;4.00;;
25948;SDS011;13961;51.178;4.448;2023-08-06T02:14:30;5.13;;;3.65;;
25948;SDS011;13961;51.178;4.448;2023-08-06T02:16:56;7.35;;;3.60;;
25948;SDS011;13961;51.178;4.448;2023-08-06T02:19:22;5.35;;;3.50;;
25948;SDS011;13961;51.178;4.448;2023-08-06T02:21:48;6.07;;;3.70;;
25948;SDS011;13961;51.178;4.448;2023-08-06T02:26:42;5.57;;;3.70;;
25948;SDS011;13961;51.178;4.448;2023-08-06T02:29:09;6.70;;;4.20;;
25948;SDS011;13961;51.178;4.448;2023-08-06T02:31:36;8.05;;;4.22;;
25948;SDS011;13961;51.178;4.448;2023-08-06T02:34:01;9.98;;;4.28;;
25948;SDS011;13961;51.178;4.448;2023-08-06T02:36:30;7.00;;;3.75;;
25948;SDS011;13961;51.178;4.448;2023-08-06T02:38:57;6.90;;;3.90;;
25948;SDS011;13961;51.178;4.448;2023-08-06T02:41:23;8.25;;;4.03;;
25948;SDS011;13961;51.178;4.448;2023-08-06T02:43:49;5.97;;;4.18;;
25948;SDS011;13961;51.178;4.448;2023-08-06T02:46:17;7.75;;;4.57;;
25948;SDS011;13961;51.178;4.448;2023-08-06T02:48:43;7.20;;;4.50;;
25948;SDS011;13961;51.178;4.448;2023-08-06T02:51:09;8.15;;;4.78;;
25948;SDS011;13961;51.178;4.448;2023-08-06T02:53:35;10.43;;;6.18;;
25948;SDS011;13961;51.178;4.448;2023-08-06T02:56:04;12.52;;;6.10;;
25948;SDS011;13961;51.178;4.448;2023-08-06T02:58:31;8.15;;;5.30;;
25948;SDS011;13961;51.178;4.448;2023-08-06T03:01:00;8.82;;;5.13;;
25948;SDS011;13961;51.178;4.448;2023-08-06T03:03:30;10.65;;;5.03;;
25948;SDS011;13961;51.178;4.448;2023-08-06T03:05:57;12.02;;;6.75;;
25948;SDS011;13961;51.178;4.448;2023-08-06T03:08:24;12.95;;;6.93;;
25948;SDS011;13961;51.178;4.448;2023-08-06T03:10:50;10.43;;;6.85;;
25948;SDS011;13961;51.178;4.448;2023-08-06T03:13:19;13.52;;;7.15;;
25948;SDS011;13961;51.178;4.448;2023-08-06T03:15:55;13.82;;;7.70;;
25948;SDS011;13961;51.178;4.448;2023-08-06T03:18:21;12.95;;;7.22;;
25948;SDS011;13961;51.178;4.448;2023-08-06T03:20:47;12.85;;;6.97;;
25948;SDS011;13961;51.178;4.448;2023-08-06T03:23:14;11.82;;;7.22;;
25948;SDS011;13961;51.178;4.448;2023-08-06T03:25:40;8.95;;;5.90;;
25948;SDS011;13961;51.178;4.448;2023-08-06T03:28:06;12.45;;;6.88;;
25948;SDS011;13961;51.178;4.448;2023-08-06T03:30:31;13.27;;;7.00;;
25948;SDS011;13961;51.178;4.448;2023-08-06T03:32:57;11.60;;;7.07;;
25948;SDS011;13961;51.178;4.448;2023-08-06T03:35:23;9.20;;;5.15;;
25948;SDS011;13961;51.178;4.448;2023-08-06T03:40:17;2.65;;;2.10;;
25948;SDS011;13961;51.178;4.448;2023-08-06T03:42:44;2.75;;;1.90;;
25948;SDS011;13961;51.178;4.448;2023-08-06T03:45:09;1.27;;;1.17;;
25948;SDS011;13961;51.178;4.448;2023-08-06T03:47:35;0.93;;;0.80;;
25948;SDS011;13961;51.178;4.448;2023-08-06T03:50:01;1.10;;;0.80;;
25948;SDS011;13961;51.178;4.448;2023-08-06T03:52:27;0.60;;;0.60;;
25948;SDS011;13961;51.178;4.448;2023-08-06T03:54:52;1.25;;;0.70;;
25948;SDS011;13961;51.178;4.448;2023-08-06T03:57:18;0.90;;;0.70;;
25948;SDS011;13961;51.178;4.448;2023-08-06T03:59:45;1.52;;;0.70;;
25948;SDS011;13961;51.178;4.448;2023-08-06T04:02:12;1.30;;;0.98;;
25948;SDS011;13961;51.178;4.448;2023-08-06T04:04:39;0.75;;;0.75;;
25948;SDS011;13961;51.178;4.448;2023-08-06T04:07:06;1.17;;;0.80;;
25948;SDS011;13961;51.178;4.448;2023-08-06T04:09:31;1.48;;;0.73;;
25948;SDS011;13961;51.178;4.448;2023-08-06T04:11:57;1.77;;;1.02;;
25948;SDS011;13961;51.178;4.448;2023-08-06T04:14:26;3.20;;;1.15;;
25948;SDS011;13961;51.178;4.448;2023-08-06T04:16:52;1.63;;;1.40;;
25948;SDS011;13961;51.178;4.448;2023-08-06T04:19:20;5.35;;;1.35;;
25948;SDS011;13961;51.178;4.448;2023-08-06T04:21:47;3.45;;;1.95;;
25948;SDS011;13961;51.178;4.448;2023-08-06T04:24:13;3.13;;;2.10;;
25948;SDS011;13961;51.178;4.448;2023-08-06T04:26:40;4.35;;;3.00;;
25948;SDS011;13961;51.178;4.448;2023-08-06T04:29:07;10.68;;;5.03;;
25948;SDS011;13961;51.178;4.448;2023-08-06T04:31:32;11.45;;;6.35;;
25948;SDS011;13961;51.178;4.448;2023-08-06T04:33:59;13.93;;;7.70;;
25948;SDS011;13961;51.178;4.448;2023-08-06T04:36:27;19.25;;;10.32;;
25948;SDS011;13961;51.178;4.448;2023-08-06T04:38:55;16.00;;;10.25;;
25948;SDS011;13961;51.178;4.448;2023-08-06T04:41:24;21.50;;;10.55;;
25948;SDS011;13961;51.178;4.448;2023-08-06T04:43:49;21.75;;;11.60;;
25948;SDS011;13961;51.178;4.448;2023-08-06T04:46:16;23.15;;;12.98;;
25948;SDS011;13961;51.178;4.448;2023-08-06T04:48:45;20.58;;;12.65;;
25948;SDS011;13961;51.178;4.448;2023-08-06T04:51:12;24.92;;;13.70;;
25948;SDS011;13961;51.178;4.448;2023-08-06T04:53:39;20.55;;;13.38;;
25948;SDS011;13961;51.178;4.448;2023-08-06T04:56:05;21.45;;;12.90;;
25948;SDS011;13961;51.178;4.448;2023-08-06T04:58:37;19.35;;;11.52;;
25948;SDS011;13961;51.178;4.448;2023-08-06T05:01:03;14.63;;;8.38;;
25948;SDS011;13961;51.178;4.448;2023-08-06T05:03:29;17.63;;;5.97;;
25948;SDS011;13961;51.178;4.448;2023-08-06T05:05:55;17.92;;;5.72;;
25948;SDS011;13961;51.178;4.448;2023-08-06T05:08:22;11.23;;;5.57;;
25948;SDS011;13961;51.178;4.448;2023-08-06T05:10:47;10.80;;;5.07;;
25948;SDS011;13961;51.178;4.448;2023-08-06T05:13:16;19.30;;;5.75;;
25948;SDS011;13961;51.178;4.448;2023-08-06T05:15:41;14.40;;;5.10;;
25948;SDS011;13961;51.178;4.448;2023-08-06T05:18:09;9.63;;;4.68;;
25948;SDS011;13961;51.178;4.448;2023-08-06T05:20:37;10.30;;;4.28;;
25948;SDS011;13961;51.178;4.448;2023-08-06T05:23:05;9.32;;;3.95;;
25948;SDS011;13961;51.178;4.448;2023-08-06T05:25:31;13.32;;;3.65;;
25948;SDS011;13961;51.178;4.448;2023-08-06T05:27:57;7.93;;;3.63;;
25948;SDS011;13961;51.178;4.448;2023-08-06T05:30:24;8.52;;;3.42;;
25948;SDS011;13961;51.178;4.448;2023-08-06T05:32:50;8.00;;;3.17;;
25948;SDS011;13961;51.178;4.448;2023-08-06T05:35:16;11.40;;;3.20;;
25948;SDS011;13961;51.178;4.448;2023-08-06T05:37:41;7.18;;;2.58;;
25948;SDS011;13961;51.178;4.448;2023-08-06T05:40:07;10.65;;;2.85;;
25948;SDS011;13961;51.178;4.448;2023-08-06T05:42:33;14.80;;;3.80;;
25948;SDS011;13961;51.178;4.448;2023-08-06T05:45:01;8.30;;;2.92;;
25948;SDS011;13961;51.178;4.448;2023-08-06T05:47:28;10.43;;;3.47;;
25948;SDS011;13961;51.178;4.448;2023-08-06T05:49:55;11.07;;;2.95;;
25948;SDS011;13961;51.178;4.448;2023-08-06T05:52:23;12.55;;;3.38;;
25948;SDS011;13961;51.178;4.448;2023-08-06T05:54:49;8.85;;;3.40;;
25948;SDS011;13961;51.178;4.448;2023-08-06T05:57:15;9.25;;;2.80;;
25948;SDS011;13961;51.178;4.448;2023-08-06T05:59:42;5.90;;;3.13;;
25948;SDS011;13961;51.178;4.448;2023-08-06T06:02:08;10.25;;;2.95;;
25948;SDS011;13961;51.178;4.448;2023-08-06T06:04:34;14.00;;;3.40;;
25948;SDS011;13961;51.178;4.448;2023-08-06T06:07:00;8.63;;;3.20;;
25948;SDS011;13961;51.178;4.448;2023-08-06T06:09:26;10.80;;;3.90;;
25948;SDS011;13961;51.178;4.448;2023-08-06T06:11:52;13.82;;;3.40;;
25948;SDS011;13961;51.178;4.448;2023-08-06T06:14:20;9.73;;;2.85;;
25948;SDS011;13961;51.178;4.448;2023-08-06T06:16:47;10.70;;;3.97;;
25948;SDS011;13961;51.178;4.448;2023-08-06T06:19:14;12.65;;;3.70;;
25948;SDS011;13961;51.178;4.448;2023-08-06T06:21:41;11.13;;;3.80;;
25948;SDS011;13961;51.178;4.448;2023-08-06T06:24:09;9.25;;;3.20;;
25948;SDS011;13961;51.178;4.448;2023-08-06T06:26:35;10.30;;;3.22;;
25948;SDS011;13961;51.178;4.448;2023-08-06T06:29:03;9.07;;;3.35;;
25948;SDS011;13961;51.178;4.448;2023-08-06T06:31:29;10.98;;;3.90;;
25948;SDS011;13961;51.178;4.448;2023-08-06T06:33:59;11.50;;;3.55;;
25948;SDS011;13961;51.178;4.448;2023-08-06T06:36:25;8.48;;;3.58;;
25948;SDS011;13961;51.178;4.448;2023-08-06T06:38:52;9.55;;;3.20;;
25948;SDS011;13961;51.178;4.448;2023-08-06T06:41:17;7.35;;;3.70;;
25948;SDS011;13961;51.178;4.448;2023-08-06T06:43:44;7.43;;;3.67;;
25948;SDS011;13961;51.178;4.448;2023-08-06T06:46:10;11.88;;;3.05;;
25948;SDS011;13961;51.178;4.448;2023-08-06T06:51:07;10.32;;;3.08;;
25948;SDS011;13961;51.178;4.448;2023-08-06T06:53:33;11.35;;;3.50;;
25948;SDS011;13961;51.178;4.448;2023-08-06T06:56:02;7.70;;;3.10;;
25948;SDS011;13961;51.178;4.448;2023-08-06T06:58:29;8.02;;;2.80;;
25948;SDS011;13961;51.178;4.448;2023-08-06T07:00:59;12.18;;;3.13;;
25948;SDS011;13961;51.178;4.448;2023-08-06T07:03:25;8.95;;;2.90;;
25948;SDS011;13961;51.178;4.448;2023-08-06T07:05:51;10.45;;;2.50;;
25948;SDS011;13961;51.178;4.448;2023-08-06T07:08:21;11.07;;;3.35;;
25948;SDS011;13961;51.178;4.448;2023-08-06T07:10:47;6.35;;;2.38;;
25948;SDS011;13961;51.178;4.448;2023-08-06T07:13:13;9.50;;;2.35;;
25948;SDS011;13961;51.178;4.448;2023-08-06T07:15:38;6.80;;;1.65;;
25948;SDS011;13961;51.178;4.448;2023-08-06T07:18:04;7.38;;;1.80;;
25948;SDS011;13961;51.178;4.448;2023-08-06T07:20:31;4.78;;;1.50;;
25948;SDS011;13961;51.178;4.448;2023-08-06T07:22:58;5.93;;;1.20;;
25948;SDS011;13961;51.178;4.448;2023-08-06T07:25:25;5.72;;;1.15;;
25948;SDS011;13961;51.178;4.448;2023-08-06T07:27:52;8.13;;;1.33;;
25948;SDS011;13961;51.178;4.448;2023-08-06T07:30:17;4.70;;;1.20;;
25948;SDS011;13961;51.178;4.448;2023-08-06T07:32:44;6.90;;;1.52;;
25948;SDS011;13961;51.178;4.448;2023-08-06T07:35:11;9.68;;;1.48;;
25948;SDS011;13961;51.178;4.448;2023-08-06T07:37:38;10.73;;;1.58;;
25948;SDS011;13961;51.178;4.448;2023-08-06T07:40:04;11.85;;;1.38;;
25948;SDS011;13961;51.178;4.448;2023-08-06T07:42:30;9.27;;;1.55;;
25948;SDS011;13961;51.178;4.448;2023-08-06T07:44:58;13.68;;;1.60;;
25948;SDS011;13961;51.178;4.448;2023-08-06T07:47:25;13.98;;;1.33;;
25948;SDS011;13961;51.178;4.448;2023-08-06T07:49:52;10.18;;;1.60;;
25948;SDS011;13961;51.178;4.448;2023-08-06T07:52:17;11.38;;;1.70;;
25948;SDS011;13961;51.178;4.448;2023-08-06T07:54:43;8.85;;;1.38;;
25948;SDS011;13961;51.178;4.448;2023-08-06T07:57:09;9.48;;;1.63;;
25948;SDS011;13961;51.178;4.448;2023-08-06T07:59:35;9.75;;;1.60;;
25948;SDS011;13961;51.178;4.448;2023-08-06T08:02:01;9.00;;;1.55;;
25948;SDS011;13961;51.178;4.448;2023-08-06T08:04:26;6.82;;;1.33;;
25948;SDS011;13961;51.178;4.448;2023-08-06T08:06:52;6.65;;;1.20;;
25948;SDS011;13961;51.178;4.448;2023-08-06T08:09:18;7.60;;;1.42;;
25948;SDS011;13961;51.178;4.448;2023-08-06T08:11:43;3.85;;;1.17;;
25948;SDS011;13961;51.178;4.448;2023-08-06T08:14:11;9.68;;;1.20;;
25948;SDS011;13961;51.178;4.448;2023-08-06T08:16:38;5.03;;;1.27;;
25948;SDS011;13961;51.178;4.448;2023-08-06T08:19:05;11.80;;;1.08;;
25948;SDS011;13961;51.178;4.448;2023-08-06T08:21:31;5.65;;;1.10;;
25948;SDS011;13961;51.178;4.448;2023-08-06T08:23:58;4.72;;;0.98;;
25948;SDS011;13961;51.178;4.448;2023-08-06T08:26:25;9.95;;;1.33;;
25948;SDS011;13961;51.178;4.448;2023-08-06T08:28:53;5.80;;;1.15;;
25948;SDS011;13961;51.178;4.448;2023-08-06T08:31:22;9.30;;;1.55;;
25948;SDS011;13961;51.178;4.448;2023-08-06T08:33:48;7.00;;;1.20;;
25948;SDS011;13961;51.178;4.448;2023-08-06T08:36:14;11.32;;;1.40;;
25948;SDS011;13961;51.178;4.448;2023-08-06T08:38:39;8.00;;;1.20;;
25948;SDS011;13961;51.178;4.448;2023-08-06T08:41:05;10.20;;;1.60;;
25948;SDS011;13961;51.178;4.448;2023-08-06T08:43:32;7.35;;;1.30;;
25948;SDS011;13961;51.178;4.448;2023-08-06T08:45:59;5.63;;;1.33;;
25948;SDS011;13961;51.178;4.448;2023-08-06T08:48:28;7.13;;;1.63;;
25948;SDS011;13961;51.178;4.448;2023-08-06T08:50:53;13.45;;;1.67;;
25948;SDS011;13961;51.178;4.448;2023-08-06T08:53:21;10.40;;;1.63;;
25948;SDS011;13961;51.178;4.448;2023-08-06T08:55:48;5.93;;;1.20;;
25948;SDS011;13961;51.178;4.448;2023-08-06T08:58:15;5.38;;;1.10;;
25948;SDS011;13961;51.178;4.448;2023-08-06T09:00:41;14.82;;;1.40;;
25948;SDS011;13961;51.178;4.448;2023-08-06T09:03:07;8.10;;;1.60;;
25948;SDS011;13961;51.178;4.448;2023-08-06T09:05:33;12.30;;;1.95;;
25948;SDS011;13961;51.178;4.448;2023-08-06T09:08:02;5.20;;;1.35;;
25948;SDS011;13961;51.178;4.448;2023-08-06T09:10:29;7.50;;;1.10;;
25948;SDS011;13961;51.178;4.448;2023-08-06T09:12:57;7.88;;;1.17;;
25948;SDS011;13961;51.178;4.448;2023-08-06T09:15:24;5.63;;;0.93;;
25948;SDS011;13961;51.178;4.448;2023-08-06T09:17:54;8.98;;;1.63;;
25948;SDS011;13961;51.178;4.448;2023-08-06T09:20:22;7.47;;;0.98;;
25948;SDS011;13961;51.178;4.448;2023-08-06T09:22:52;7.72;;;0.82;;
25948;SDS011;13961;51.178;4.448;2023-08-06T09:25:22;7.53;;;0.80;;
25948;SDS011;13961;51.178;4.448;2023-08-06T09:27:49;6.30;;;0.88;;
25948;SDS011;13961;51.178;4.448;2023-08-06T09:30:38;7.53;;;0.90;;
25948;SDS011;13961;51.178;4.448;2023-08-06T09:33:17;3.60;;;0.80;;
25948;SDS011;13961;51.178;4.448;2023-08-06T09:35:45;3.35;;;0.75;;
25948;SDS011;13961;51.178;4.448;2023-08-06T09:38:12;5.05;;;0.73;;
25948;SDS011;13961;51.178;4.448;2023-08-06T09:40:38;5.65;;;0.77;;
25948;SDS011;13961;51.178;4.448;2023-08-06T09:43:05;4.68;;;1.00;;
25948;SDS011;13961;51.178;4.448;2023-08-06T09:45:36;6.32;;;0.95;;
25948;SDS011;13961;51.178;4.448;2023-08-06T09:48:07;3.63;;;0.70;;
25948;SDS011;13961;51.178;4.448;2023-08-06T09:50:34;2.83;;;0.75;;
25948;SDS011;13961;51.178;4.448;2023-08-06T09:53:03;7.13;;;1.10;;
25948;SDS011;13961;51.178;4.448;2023-08-06T09:55:32;7.28;;;1.17;;
25948;SDS011;13961;51.178;4.448;2023-08-06T09:57:59;8.73;;;1.52;;
25948;SDS011;13961;51.178;4.448;2023-08-06T10:00:28;2.15;;;0.60;;
25948;SDS011;13961;51.178;4.448;2023-08-06T10:02:58;5.93;;;1.10;;
25948;SDS011;13961;51.178;4.448;2023-08-06T10:05:25;10.15;;;1.20;;
25948;SDS011;13961;51.178;4.448;2023-08-06T10:07:53;9.57;;;1.17;;
25948;SDS011;13961;51.178;4.448;2023-08-06T10:10:20;6.05;;;1.20;;
25948;SDS011;13961;51.178;4.448;2023-08-06T10:12:48;8.52;;;1.13;;
25948;SDS011;13961;51.178;4.448;2023-08-06T10:15:16;7.40;;;1.10;;
25948;SDS011;13961;51.178;4.448;2023-08-06T10:17:50;10.82;;;1.70;;
25948;SDS011;13961;51.178;4.448;2023-08-06T10:20:17;8.07;;;1.38;;
25948;SDS011;13961;51.178;4.448;2023-08-06T10:22:59;7.22;;;1.27;;
25948;SDS011;13961;51.178;4.448;2023-08-06T10:25:32;8.32;;;1.30;;
25948;SDS011;13961;51.178;4.448;2023-08-06T10:27:59;9.38;;;1.77;;
25948;SDS011;13961;51.178;4.448;2023-08-06T10:30:30;13.77;;;1.65;;
25948;SDS011;13961;51.178;4.448;2023-08-06T10:32:57;9.38;;;1.00;;
25948;SDS011;13961;51.178;4.448;2023-08-06T10:38:18;10.98;;;1.40;;
25948;SDS011;13961;51.178;4.448;2023-08-06T10:43:26;5.95;;;1.10;;
25948;SDS011;13961;51.178;4.448;2023-08-06T10:45:53;4.82;;;0.70;;
25948;SDS011;13961;51.178;4.448;2023-08-06T10:48:43;4.82;;;0.65;;
25948;SDS011;13961;51.178;4.448;2023-08-06T10:51:11;6.03;;;0.75;;
25948;SDS011;13961;51.178;4.448;2023-08-06T10:53:45;6.85;;;0.80;;
25948;SDS011;13961;51.178;4.448;2023-08-06T10:56:16;6.18;;;1.00;;
25948;SDS011;13961;51.178;4.448;2023-08-06T10:58:44;6.35;;;0.80;;
25948;SDS011;13961;51.178;4.448;2023-08-06T11:01:12;5.68;;;0.70;;
25948;SDS011;13961;51.178;4.448;2023-08-06T11:06:07;3.55;;;0.70;;
25948;SDS011;13961;51.178;4.448;2023-08-06T11:08:35;8.05;;;0.93;;
25948;SDS011;13961;51.178;4.448;2023-08-06T11:11:35;6.78;;;1.00;;
25948;SDS011;13961;51.178;4.448;2023-08-06T11:13:54;2.25;;;0.70;;
25948;SDS011;13961;51.178;4.448;2023-08-06T11:16:21;3.20;;;1.02;;
25948;SDS011;13961;51.178;4.448;2023-08-06T11:18:55;5.32;;;0.75;;
25948;SDS011;13961;51.178;4.448;2023-08-06T11:21:22;6.10;;;0.98;;
25948;SDS011;13961;51.178;4.448;2023-08-06T11:23:50;6.28;;;0.85;;
25948;SDS011;13961;51.178;4.448;2023-08-06T11:26:20;8.13;;;1.08;;
25948;SDS011;13961;51.178;4.448;2023-08-06T11:28:47;7.15;;;1.15;;
25948;SDS011;13961;51.178;4.448;2023-08-06T11:31:20;3.55;;;0.70;;
25948;SDS011;13961;51.178;4.448;2023-08-06T11:33:55;6.25;;;1.05;;
25948;SDS011;13961;51.178;4.448;2023-08-06T11:36:30;4.33;;;1.20;;
25948;SDS011;13961;51.178;4.448;2023-08-06T11:38:58;8.43;;;1.50;;
25948;SDS011;13961;51.178;4.448;2023-08-06T11:41:24;11.52;;;1.75;;
25948;SDS011;13961;51.178;4.448;2023-08-06T11:43:50;5.55;;;1.20;;
25948;SDS011;13961;51.178;4.448;2023-08-06T11:46:16;6.57;;;1.40;;
25948;SDS011;13961;51.178;4.448;2023-08-06T11:48:57;6.50;;;1.30;;
25948;SDS011;13961;51.178;4.448;2023-08-06T11:51:24;6.82;;;1.10;;
25948;SDS011;13961;51.178;4.448;2023-08-06T11:53:56;5.30;;;0.93;;
25948;SDS011;13961;51.178;4.448;2023-08-06T11:56:24;6.60;;;1.15;;
25948;SDS011;13961;51.178;4.448;2023-08-06T11:58:54;10.10;;;1.90;;
25948;SDS011;13961;51.178;4.448;2023-08-06T12:01:20;7.28;;;1.38;;
25948;SDS011;13961;51.178;4.448;2023-08-06T12:03:49;7.55;;;1.27;;
25948;SDS011;13961;51.178;4.448;2023-08-06T12:06:16;8.52;;;1.67;;
25948;SDS011;13961;51.178;4.448;2023-08-06T12:08:41;10.77;;;1.55;;
25948;SDS011;13961;51.178;4.448;2023-08-06T12:11:07;9.95;;;1.55;;
25948;SDS011;13961;51.178;4.448;2023-08-06T12:13:34;10.48;;;1.60;;
25948;SDS011;13961;51.178;4.448;2023-08-06T12:15:59;15.10;;;1.92;;
25948;SDS011;13961;51.178;4.448;2023-08-06T12:18:26;9.70;;;1.60;;
25948;SDS011;13961;51.178;4.448;2023-08-06T12:20:52;5.63;;;1.27;;
25948;SDS011;13961;51.178;4.448;2023-08-06T12:23:18;12.50;;;1.58;;
25948;SDS011;13961;51.178;4.448;2023-08-06T12:25:44;12.82;;;1.60;;
25948;SDS011;13961;51.178;4.448;2023-08-06T12:28:10;8.80;;;1.65;;
25948;SDS011;13961;51.178;4.448;2023-08-06T12:30:35;7.80;;;1.52;;
25948;SDS011;13961;51.178;4.448;2023-08-06T12:33:04;8.15;;;1.85;;
25948;SDS011;13961;51.178;4.448;2023-08-06T12:35:30;14.35;;;2.13;;
25948;SDS011;13961;51.178;4.448;2023-08-06T12:37:57;12.50;;;2.20;;
25948;SDS011;13961;51.178;4.448;2023-08-06T12:40:22;11.07;;;1.73;;
25948;SDS011;13961;51.178;4.448;2023-08-06T12:42:50;14.00;;;2.10;;
25948;SDS011;13961;51.178;4.448;2023-08-06T12:45:16;9.85;;;1.63;;
25948;SDS011;13961;51.178;4.448;2023-08-06T12:50:11;9.88;;;1.65;;
25948;SDS011;13961;51.178;4.448;2023-08-06T12:52:36;9.32;;;1.80;;
25948;SDS011;13961;51.178;4.448;2023-08-06T12:55:02;8.68;;;1.45;;
25948;SDS011;13961;51.178;4.448;2023-08-06T12:57:28;6.93;;;1.67;;
25948;SDS011;13961;51.178;4.448;2023-08-06T12:59:57;7.30;;;0.90;;
25948;SDS011;13961;51.178;4.448;2023-08-06T13:02:23;5.03;;;1.15;;
25948;SDS011;13961;51.178;4.448;2023-08-06T13:04:50;4.38;;;0.80;;
25948;SDS011;13961;51.178;4.448;2023-08-06T13:09:46;3.90;;;0.98;;
25948;SDS011;13961;51.178;4.448;2023-08-06T13:12:11;5.72;;;0.73;;
25948;SDS011;13961;51.178;4.448;2023-08-06T13:14:38;3.97;;;0.80;;
25948;SDS011;13961;51.178;4.448;2023-08-06T13:17:07;4.43;;;1.10;;
25948;SDS011;13961;51.178;4.448;2023-08-06T13:19:36;5.90;;;1.08;;
25948;SDS011;13961;51.178;4.448;2023-08-06T13:24:36;6.00;;;1.30;;
25948;SDS011;13961;51.178;4.448;2023-08-06T13:27:02;2.13;;;0.75;;
25948;SDS011;13961;51.178;4.448;2023-08-06T13:29:31;3.63;;;0.75;;
25948;SDS011;13961;51.178;4.448;2023-08-06T13:31:56;3.08;;;0.90;;
25948;SDS011;13961;51.178;4.448;2023-08-06T13:36:54;4.47;;;0.80;;
25948;SDS011;13961;51.178;4.448;2023-08-06T13:39:21;4.93;;;0.82;;
25948;SDS011;13961;51.178;4.448;2023-08-06T13:41:48;6.95;;;1.00;;
25948;SDS011;13961;51.178;4.448;2023-08-06T13:44:14;4.57;;;1.05;;
25948;SDS011;13961;51.178;4.448;2023-08-06T13:46:40;6.82;;;1.13;;
25948;SDS011;13961;51.178;4.448;2023-08-06T13:49:06;6.80;;;1.20;;
25948;SDS011;13961;51.178;4.448;2023-08-06T13:51:32;5.63;;;1.73;;
25948;SDS011;13961;51.178;4.448;2023-08-06T13:53:59;9.93;;;1.40;;
25948;SDS011;13961;51.178;4.448;2023-08-06T13:56:27;8.10;;;1.92;;
25948;SDS011;13961;51.178;4.448;2023-08-06T13:58:54;9.60;;;1.95;;
25948;SDS011;13961;51.178;4.448;2023-08-06T14:01:22;6.70;;;1.40;;
25948;SDS011;13961;51.178;4.448;2023-08-06T14:06:21;11.88;;;1.60;;
25948;SDS011;13961;51.178;4.448;2023-08-06T14:08:50;7.43;;;1.30;;
25948;SDS011;13961;51.178;4.448;2023-08-06T14:11:18;9.07;;;1.70;;
25948;SDS011;13961;51.178;4.448;2023-08-06T14:13:45;9.52;;;1.10;;
25948;SDS011;13961;51.178;4.448;2023-08-06T14:16:12;9.40;;;1.75;;
25948;SDS011;13961;51.178;4.448;2023-08-06T14:18:40;8.15;;;1.30;;
25948;SDS011;13961;51.178;4.448;2023-08-06T14:21:06;6.75;;;1.60;;
25948;SDS011;13961;51.178;4.448;2023-08-06T14:23:32;12.98;;;1.80;;
25948;SDS011;13961;51.178;4.448;2023-08-06T14:25:58;6.25;;;1.63;;
25948;SDS011;13961;51.178;4.448;2023-08-06T14:28:24;8.27;;;1.55;;
25948;SDS011;13961;51.178;4.448;2023-08-06T14:30:50;8.93;;;1.58;;
25948;SDS011;13961;51.178;4.448;2023-08-06T14:33:17;10.18;;;1.80;;
25948;SDS011;13961;51.178;4.448;2023-08-06T14:35:43;8.70;;;1.30;;
25948;SDS011;13961;51.178;4.448;2023-08-06T14:38:09;7.93;;;1.30;;
25948;SDS011;13961;51.178;4.448;2023-08-06T14:40:38;5.68;;;1.10;;
25948;SDS011;13961;51.178;4.448;2023-08-06T14:43:05;5.20;;;1.27;;
25948;SDS011;13961;51.178;4.448;2023-08-06T14:45:31;8.10;;;1.40;;
25948;SDS011;13961;51.178;4.448;2023-08-06T14:47:57;6.38;;;1.65;;
25948;SDS011;13961;51.178;4.448;2023-08-06T14:50:24;8.80;;;1.80;;
25948;SDS011;13961;51.178;4.448;2023-08-06T14:52:50;6.32;;;1.20;;
25948;SDS011;13961;51.178;4.448;2023-08-06T14:55:25;9.25;;;1.33;;
25948;SDS011;13961;51.178;4.448;2023-08-06T14:57:52;5.78;;;1.40;;
25948;SDS011;13961;51.178;4.448;2023-08-06T15:00:18;8.93;;;1.40;;
25948;SDS011;13961;51.178;4.448;2023-08-06T15:02:46;6.68;;;1.55;;
25948;SDS011;13961;51.178;4.448;2023-08-06T15:05:15;8.77;;;1.70;;
25948;SDS011;13961;51.178;4.448;2023-08-06T15:07:43;8.05;;;1.63;;
25948;SDS011;13961;51.178;4.448;2023-08-06T15:10:08;6.82;;;1.35;;
25948;SDS011;13961;51.178;4.448;2023-08-06T15:12:37;10.35;;;1.77;;
25948;SDS011;13961;51.178;4.448;2023-08-06T15:15:04;11.20;;;1.33;;
25948;SDS011;13961;51.178;4.448;2023-08-06T15:17:34;7.93;;;1.40;;
25948;SDS011;13961;51.178;4.448;2023-08-06T15:20:01;10.75;;;1.70;;
25948;SDS011;13961;51.178;4.448;2023-08-06T15:22:28;8.27;;;1.75;;
25948;SDS011;13961;51.178;4.448;2023-08-06T15:24:57;10.80;;;2.10;;